sensor_id;sensor_type;location;lat;lon;timestamp;pressure;altitude;pressure_sealevel;temperature;humidity
61914;BME280;50095;53.336;-1.488;2022-08-06T00:02:26;101110.24;;;21.08;39.17
61914;BME280;50095;53.336;-1.488;2022-08-06T00:04:55;101108.80;;;20.86;39.24
61914;BME280;50095;53.336;-1.488;2022-08-06T00:07:23;101107.67;;;20.92;39.51
61914;BME280;50095;53.336;-1.488;2022-08-06T00:09:51;101106.62;;;21.02;39.44
61914;BME280;50095;53.336;-1.488;2022-08-06T00:12:19;101106.22;;;20.56;40.14
61914;BME280;50095;53.336;-1.488;2022-08-06T00:14:46;101104.51;;;20.48;40.44
61914;BME280;50095;53.336;-1.488;2022-08-06T00:17:14;101102.19;;;20.69;40.64
61914;BME280;50095;53.336;-1.488;2022-08-06T00:19:41;101106.50;;;20.59;40.50
61914;BME280;50095;53.336;-1.488;2022-08-06T00:22:08;101108.22;;;20.87;40.84
61914;BME280;50095;53.336;-1.488;2022-08-06T00:24:36;101109.85;;;20.68;40.85
61914;BME280;50095;53.336;-1.488;2022-08-06T00:27:04;101113.75;;;20.58;41.08
61914;BME280;50095;53.336;-1.488;2022-08-06T00:29:31;101116.77;;;20.98;40.49
61914;BME280;50095;53.336;-1.488;2022-08-06T00:31:58;101115.06;;;20.60;40.99
61914;BME280;50095;53.336;-1.488;2022-08-06T00:34:25;101116.50;;;20.85;41.00
61914;BME280;50095;53.336;-1.488;2022-08-06T00:36:53;101118.64;;;20.83;40.63
61914;BME280;50095;53.336;-1.488;2022-08-06T00:39:20;101119.79;;;20.76;40.99
61914;BME280;50095;53.336;-1.488;2022-08-06T00:41:47;101119.15;;;20.59;41.34
61914;BME280;50095;53.336;-1.488;2022-08-06T00:44:15;101116.28;;;20.27;41.59
61914;BME280;50095;53.336;-1.488;2022-08-06T00:46:43;101116.75;;;20.49;41.68
61914;BME280;50095;53.336;-1.488;2022-08-06T00:49:11;101117.92;;;20.48;41.39
61914;BME280;50095;53.336;-1.488;2022-08-06T00:51:39;101115.39;;;20.45;41.77
61914;BME280;50095;53.336;-1.488;2022-08-06T00:54:06;101113.01;;;20.48;41.68
61914;BME280;50095;53.336;-1.488;2022-08-06T00:56:33;101113.23;;;20.47;41.72
61914;BME280;50095;53.336;-1.488;2022-08-06T00:59:00;101106.61;;;20.77;41.55
61914;BME280;50095;53.336;-1.488;2022-08-06T01:01:28;101106.15;;;20.56;41.55
61914;BME280;50095;53.336;-1.488;2022-08-06T01:03:55;101109.24;;;20.37;41.74
61914;BME280;50095;53.336;-1.488;2022-08-06T01:06:23;101114.06;;;20.45;41.68
61914;BME280;50095;53.336;-1.488;2022-08-06T01:08:51;101119.29;;;20.58;41.80
61914;BME280;50095;53.336;-1.488;2022-08-06T01:11:18;101119.98;;;20.12;41.91
61914;BME280;50095;53.336;-1.488;2022-08-06T01:13:46;101122.75;;;20.37;41.97
61914;BME280;50095;53.336;-1.488;2022-08-06T01:16:23;101121.88;;;20.41;42.06
61914;BME280;50095;53.336;-1.488;2022-08-06T01:18:59;101122.31;;;20.34;42.29
61914;BME280;50095;53.336;-1.488;2022-08-06T01:21:47;101118.33;;;20.37;42.18
61914;BME280;50095;53.336;-1.488;2022-08-06T01:24:46;101115.08;;;20.46;42.13
61914;BME280;50095;53.336;-1.488;2022-08-06T01:27:32;101122.92;;;20.27;42.52
61914;BME280;50095;53.336;-1.488;2022-08-06T01:30:04;101119.31;;;20.27;42.59
61914;BME280;50095;53.336;-1.488;2022-08-06T01:32:37;101121.49;;;20.35;42.49
61914;BME280;50095;53.336;-1.488;2022-08-06T01:35:08;101126.66;;;20.44;42.32
61914;BME280;50095;53.336;-1.488;2022-08-06T01:37:41;101127.43;;;20.41;42.30
61914;BME280;50095;53.336;-1.488;2022-08-06T01:40:13;101130.97;;;20.34;42.42
61914;BME280;50095;53.336;-1.488;2022-08-06T01:42:43;101128.84;;;20.41;42.39
61914;BME280;50095;53.336;-1.488;2022-08-06T01:45:15;101124.85;;;20.39;42.29
61914;BME280;50095;53.336;-1.488;2022-08-06T01:47:45;101131.99;;;20.33;42.28
61914;BME280;50095;53.336;-1.488;2022-08-06T01:50:17;101126.52;;;20.40;40.93
61914;BME280;50095;53.336;-1.488;2022-08-06T01:52:48;101123.68;;;20.22;42.45
61914;BME280;50095;53.336;-1.488;2022-08-06T01:55:18;101121.27;;;20.51;41.47
61914;BME280;50095;53.336;-1.488;2022-08-06T01:57:51;101118.79;;;20.55;41.24
61914;BME280;50095;53.336;-1.488;2022-08-06T02:00:20;101119.58;;;20.96;40.65
61914;BME280;50095;53.336;-1.488;2022-08-06T02:02:48;101112.83;;;20.27;41.60
61914;BME280;50095;53.336;-1.488;2022-08-06T02:05:19;101116.10;;;20.69;41.11
61914;BME280;50095;53.336;-1.488;2022-08-06T02:07:49;101117.80;;;20.27;41.61
61914;BME280;50095;53.336;-1.488;2022-08-06T02:10:20;101121.00;;;19.69;40.71
61914;BME280;50095;53.336;-1.488;2022-08-06T02:12:49;101120.65;;;19.17;41.11
61914;BME280;50095;53.336;-1.488;2022-08-06T02:15:20;101121.14;;;20.01;41.65
61914;BME280;50095;53.336;-1.488;2022-08-06T02:17:51;101120.71;;;20.11;40.05
61914;BME280;50095;53.336;-1.488;2022-08-06T02:20:24;101123.88;;;19.68;41.94
61914;BME280;50095;53.336;-1.488;2022-08-06T02:22:53;101121.53;;;19.56;42.05
61914;BME280;50095;53.336;-1.488;2022-08-06T02:25:23;101123.16;;;19.73;42.96
61914;BME280;50095;53.336;-1.488;2022-08-06T02:27:52;101117.84;;;19.71;42.97
61914;BME280;50095;53.336;-1.488;2022-08-06T02:30:20;101118.67;;;19.81;43.13
61914;BME280;50095;53.336;-1.488;2022-08-06T02:32:48;101120.87;;;19.86;43.14
61914;BME280;50095;53.336;-1.488;2022-08-06T02:35:16;101127.16;;;19.69;43.09
61914;BME280;50095;53.336;-1.488;2022-08-06T02:37:48;101124.23;;;19.72;43.12
61914;BME280;50095;53.336;-1.488;2022-08-06T02:40:26;101123.44;;;19.45;43.21
61914;BME280;50095;53.336;-1.488;2022-08-06T02:43:02;101121.81;;;19.70;43.20
61914;BME280;50095;53.336;-1.488;2022-08-06T02:45:37;101125.92;;;19.70;43.25
61914;BME280;50095;53.336;-1.488;2022-08-06T02:48:13;101125.13;;;19.42;43.37
61914;BME280;50095;53.336;-1.488;2022-08-06T02:50:46;101124.82;;;19.45;43.38
61914;BME280;50095;53.336;-1.488;2022-08-06T02:53:19;101126.42;;;19.73;43.33
61914;BME280;50095;53.336;-1.488;2022-08-06T02:55:48;101127.61;;;19.66;43.41
61914;BME280;50095;53.336;-1.488;2022-08-06T02:58:21;101128.62;;;19.64;43.45
61914;BME280;50095;53.336;-1.488;2022-08-06T03:00:51;101128.12;;;19.60;43.47
61914;BME280;50095;53.336;-1.488;2022-08-06T03:03:22;101129.25;;;19.92;43.44
61914;BME280;50095;53.336;-1.488;2022-08-06T03:05:50;101134.18;;;19.63;43.51
61914;BME280;50095;53.336;-1.488;2022-08-06T03:08:21;101133.98;;;19.59;43.60
61914;BME280;50095;53.336;-1.488;2022-08-06T03:10:52;101128.63;;;19.87;43.60
61914;BME280;50095;53.336;-1.488;2022-08-06T03:13:22;101125.89;;;19.90;43.55
61914;BME280;50095;53.336;-1.488;2022-08-06T03:15:49;101125.44;;;19.80;43.66
61914;BME280;50095;53.336;-1.488;2022-08-06T03:18:18;101128.41;;;19.48;43.79
61914;BME280;50095;53.336;-1.488;2022-08-06T03:20:47;101129.75;;;19.32;41.81
61914;BME280;50095;53.336;-1.488;2022-08-06T03:23:16;101128.56;;;19.22;43.71
61914;BME280;50095;53.336;-1.488;2022-08-06T03:25:44;101127.45;;;19.41;43.84
61914;BME280;50095;53.336;-1.488;2022-08-06T03:28:14;101126.16;;;19.44;43.85
61914;BME280;50095;53.336;-1.488;2022-08-06T03:30:44;101130.04;;;19.70;43.44
61914;BME280;50095;53.336;-1.488;2022-08-06T03:33:13;101131.01;;;19.55;43.81
61914;BME280;50095;53.336;-1.488;2022-08-06T03:35:42;101131.92;;;19.39;43.69
61914;BME280;50095;53.336;-1.488;2022-08-06T03:38:12;101132.92;;;19.31;43.89
61914;BME280;50095;53.336;-1.488;2022-08-06T03:40:42;101134.00;;;19.35;43.84
61914;BME280;50095;53.336;-1.488;2022-08-06T03:43:10;101134.73;;;19.30;43.23
61914;BME280;50095;53.336;-1.488;2022-08-06T03:45:55;101132.21;;;19.25;42.73
61914;BME280;50095;53.336;-1.488;2022-08-06T03:48:26;101144.50;;;19.23;40.13
61914;BME280;50095;53.336;-1.488;2022-08-06T03:50:55;101141.15;;;19.41;42.81
61914;BME280;50095;53.336;-1.488;2022-08-06T03:53:25;101140.23;;;19.25;42.59
61914;BME280;50095;53.336;-1.488;2022-08-06T03:55:57;101137.94;;;19.37;40.74
61914;BME280;50095;53.336;-1.488;2022-08-06T03:58:27;101139.99;;;19.49;42.79
61914;BME280;50095;53.336;-1.488;2022-08-06T04:00:59;101139.49;;;19.22;43.56
61914;BME280;50095;53.336;-1.488;2022-08-06T04:03:26;101138.99;;;19.27;43.57
61914;BME280;50095;53.336;-1.488;2022-08-06T04:05:54;101138.93;;;19.21;43.74
61914;BME280;50095;53.336;-1.488;2022-08-06T04:08:22;101141.87;;;19.33;43.65
61914;BME280;50095;53.336;-1.488;2022-08-06T04:10:51;101148.65;;;19.31;43.76
61914;BME280;50095;53.336;-1.488;2022-08-06T04:13:24;101149.48;;;19.39;43.72
61914;BME280;50095;53.336;-1.488;2022-08-06T04:15:54;101147.02;;;19.61;43.83
61914;BME280;50095;53.336;-1.488;2022-08-06T04:18:24;101145.89;;;19.31;42.91
61914;BME280;50095;53.336;-1.488;2022-08-06T04:20:55;101144.58;;;19.40;43.83
61914;BME280;50095;53.336;-1.488;2022-08-06T04:23:24;101149.23;;;19.44;43.79
61914;BME280;50095;53.336;-1.488;2022-08-06T04:25:53;101153.37;;;19.47;43.84
61914;BME280;50095;53.336;-1.488;2022-08-06T04:28:24;101159.91;;;19.56;43.73
61914;BME280;50095;53.336;-1.488;2022-08-06T04:30:53;101161.94;;;19.35;43.66
61914;BME280;50095;53.336;-1.488;2022-08-06T04:33:23;101165.65;;;19.32;43.68
61914;BME280;50095;53.336;-1.488;2022-08-06T04:35:51;101163.52;;;19.33;43.63
61914;BME280;50095;53.336;-1.488;2022-08-06T04:38:21;101164.69;;;19.39;43.57
61914;BME280;50095;53.336;-1.488;2022-08-06T04:40:48;101161.27;;;19.43;43.53
61914;BME280;50095;53.336;-1.488;2022-08-06T04:43:17;101162.62;;;19.43;43.50
61914;BME280;50095;53.336;-1.488;2022-08-06T04:45:45;101160.41;;;19.78;43.36
61914;BME280;50095;53.336;-1.488;2022-08-06T04:48:13;101161.70;;;19.49;43.37
61914;BME280;50095;53.336;-1.488;2022-08-06T04:50:40;101162.58;;;19.25;43.39
61914;BME280;50095;53.336;-1.488;2022-08-06T04:53:10;101163.14;;;19.47;43.40
61914;BME280;50095;53.336;-1.488;2022-08-06T04:55:38;101163.31;;;19.57;43.27
61914;BME280;50095;53.336;-1.488;2022-08-06T04:58:08;101170.89;;;19.59;43.22
61914;BME280;50095;53.336;-1.488;2022-08-06T05:00:37;101172.95;;;19.85;43.21
61914;BME280;50095;53.336;-1.488;2022-08-06T05:03:05;101175.01;;;19.33;43.21
61914;BME280;50095;53.336;-1.488;2022-08-06T05:05:38;101175.44;;;19.36;43.20
61914;BME280;50095;53.336;-1.488;2022-08-06T05:08:07;101179.55;;;19.62;43.10
61914;BME280;50095;53.336;-1.488;2022-08-06T05:10:41;101182.59;;;19.63;43.10
61914;BME280;50095;53.336;-1.488;2022-08-06T05:13:13;101185.12;;;19.50;42.95
61914;BME280;50095;53.336;-1.488;2022-08-06T05:15:45;101187.36;;;19.68;42.98
61914;BME280;50095;53.336;-1.488;2022-08-06T05:18:21;101188.82;;;19.69;42.97
61914;BME280;50095;53.336;-1.488;2022-08-06T05:20:51;101185.42;;;19.77;42.86
61914;BME280;50095;53.336;-1.488;2022-08-06T05:23:24;101191.76;;;19.47;43.05
61914;BME280;50095;53.336;-1.488;2022-08-06T05:25:54;101191.71;;;19.64;42.85
61914;BME280;50095;53.336;-1.488;2022-08-06T05:28:22;101197.26;;;20.24;42.76
61914;BME280;50095;53.336;-1.488;2022-08-06T05:30:50;101198.76;;;20.06;42.63
61914;BME280;50095;53.336;-1.488;2022-08-06T05:33:27;101202.13;;;19.93;42.49
61914;BME280;50095;53.336;-1.488;2022-08-06T05:35:55;101203.21;;;20.01;42.41
61914;BME280;50095;53.336;-1.488;2022-08-06T05:38:23;101200.47;;;20.09;42.31
61914;BME280;50095;53.336;-1.488;2022-08-06T05:40:50;101196.31;;;20.11;42.26
61914;BME280;50095;53.336;-1.488;2022-08-06T05:43:18;101204.19;;;20.13;42.19
61914;BME280;50095;53.336;-1.488;2022-08-06T05:45:47;101202.57;;;20.17;42.11
61914;BME280;50095;53.336;-1.488;2022-08-06T05:48:17;101197.72;;;20.21;42.00
61914;BME280;50095;53.336;-1.488;2022-08-06T05:50:49;101198.54;;;20.05;41.84
61914;BME280;50095;53.336;-1.488;2022-08-06T05:53:25;101205.15;;;20.28;41.80
61914;BME280;50095;53.336;-1.488;2022-08-06T05:55:57;101208.65;;;20.34;41.70
61914;BME280;50095;53.336;-1.488;2022-08-06T05:58:31;101209.83;;;20.39;41.62
61914;BME280;50095;53.336;-1.488;2022-08-06T06:01:03;101211.54;;;20.48;41.47
61914;BME280;50095;53.336;-1.488;2022-08-06T06:03:31;101215.86;;;20.31;41.38
61914;BME280;50095;53.336;-1.488;2022-08-06T06:06:01;101220.63;;;20.54;41.35
61914;BME280;50095;53.336;-1.488;2022-08-06T06:08:29;101221.74;;;20.58;41.27
61914;BME280;50095;53.336;-1.488;2022-08-06T06:10:57;101222.56;;;20.06;41.31
61914;BME280;50095;53.336;-1.488;2022-08-06T06:13:25;101228.21;;;20.56;41.30
61914;BME280;50095;53.336;-1.488;2022-08-06T06:15:57;101230.86;;;20.66;41.17
61914;BME280;50095;53.336;-1.488;2022-08-06T06:18:43;101233.50;;;20.67;41.15
61914;BME280;50095;53.336;-1.488;2022-08-06T06:21:23;101236.60;;;20.75;41.03
61914;BME280;50095;53.336;-1.488;2022-08-06T06:23:56;101241.62;;;20.74;41.04
61914;BME280;50095;53.336;-1.488;2022-08-06T06:26:35;101240.05;;;20.72;41.03
61914;BME280;50095;53.336;-1.488;2022-08-06T06:29:07;101240.67;;;20.75;40.99
61914;BME280;50095;53.336;-1.488;2022-08-06T06:31:44;101240.52;;;20.89;40.81
61914;BME280;50095;53.336;-1.488;2022-08-06T06:34:18;101238.00;;;20.67;40.82
61914;BME280;50095;53.336;-1.488;2022-08-06T06:36:51;101237.09;;;20.94;40.75
61914;BME280;50095;53.336;-1.488;2022-08-06T06:39:27;101242.65;;;20.77;40.71
61914;BME280;50095;53.336;-1.488;2022-08-06T06:42:01;101242.45;;;20.56;40.66
61914;BME280;50095;53.336;-1.488;2022-08-06T06:44:50;101241.25;;;21.09;40.66
61914;BME280;50095;53.336;-1.488;2022-08-06T06:47:27;101239.38;;;20.93;40.61
61914;BME280;50095;53.336;-1.488;2022-08-06T06:50:04;101240.09;;;20.95;40.58
61914;BME280;50095;53.336;-1.488;2022-08-06T06:52:38;101245.42;;;21.20;40.52
61914;BME280;50095;53.336;-1.488;2022-08-06T06:55:11;101243.62;;;20.75;40.47
61914;BME280;50095;53.336;-1.488;2022-08-06T06:57:43;101245.64;;;20.79;40.40
61914;BME280;50095;53.336;-1.488;2022-08-06T07:00:12;101250.26;;;20.82;40.31
61914;BME280;50095;53.336;-1.488;2022-08-06T07:02:41;101256.48;;;20.85;40.27
61914;BME280;50095;53.336;-1.488;2022-08-06T07:05:10;101257.42;;;20.66;38.81
61914;BME280;50095;53.336;-1.488;2022-08-06T07:07:41;101259.15;;;21.29;39.17
61914;BME280;50095;53.336;-1.488;2022-08-06T07:10:12;101257.02;;;20.64;37.20
61914;BME280;50095;53.336;-1.488;2022-08-06T07:12:42;101257.11;;;20.72;40.30
61914;BME280;50095;53.336;-1.488;2022-08-06T07:15:11;101265.03;;;21.02;39.75
61914;BME280;50095;53.336;-1.488;2022-08-06T07:17:40;101262.48;;;20.60;39.65
61914;BME280;50095;53.336;-1.488;2022-08-06T07:20:11;101266.29;;;20.70;39.18
61914;BME280;50095;53.336;-1.488;2022-08-06T07:22:41;101267.09;;;20.53;39.68
61914;BME280;50095;53.336;-1.488;2022-08-06T07:25:12;101265.87;;;20.53;38.43
61914;BME280;50095;53.336;-1.488;2022-08-06T07:27:44;101262.57;;;20.70;38.90
61914;BME280;50095;53.336;-1.488;2022-08-06T07:30:15;101260.62;;;21.31;39.08
61914;BME280;50095;53.336;-1.488;2022-08-06T07:32:44;101260.64;;;20.42;36.84
61914;BME280;50095;53.336;-1.488;2022-08-06T07:35:13;101258.02;;;20.56;37.91
61914;BME280;50095;53.336;-1.488;2022-08-06T07:37:44;101260.60;;;19.62;39.02
61914;BME280;50095;53.336;-1.488;2022-08-06T07:40:20;101263.82;;;20.20;38.67
61914;BME280;50095;53.336;-1.488;2022-08-06T07:42:52;101271.00;;;20.69;38.70
61914;BME280;50095;53.336;-1.488;2022-08-06T07:45:22;101276.15;;;20.53;39.60
61914;BME280;50095;53.336;-1.488;2022-08-06T07:47:51;101272.04;;;20.90;38.32
61914;BME280;50095;53.336;-1.488;2022-08-06T07:50:23;101279.31;;;20.11;39.37
61914;BME280;50095;53.336;-1.488;2022-08-06T07:52:52;101278.89;;;21.04;38.80
61914;BME280;50095;53.336;-1.488;2022-08-06T07:55:21;101277.04;;;21.25;38.63
61914;BME280;50095;53.336;-1.488;2022-08-06T07:57:49;101281.96;;;21.51;38.19
61914;BME280;50095;53.336;-1.488;2022-08-06T08:00:17;101282.24;;;21.12;38.17
61914;BME280;50095;53.336;-1.488;2022-08-06T08:02:45;101282.94;;;21.47;37.73
61914;BME280;50095;53.336;-1.488;2022-08-06T08:05:12;101285.56;;;21.29;37.25
61914;BME280;50095;53.336;-1.488;2022-08-06T08:07:40;101284.42;;;20.50;38.13
61914;BME280;50095;53.336;-1.488;2022-08-06T08:10:09;101284.71;;;21.23;37.54
61914;BME280;50095;53.336;-1.488;2022-08-06T08:12:38;101286.03;;;21.02;37.80
61914;BME280;50095;53.336;-1.488;2022-08-06T08:15:08;101289.67;;;21.14;36.35
61914;BME280;50095;53.336;-1.488;2022-08-06T08:17:35;101288.48;;;21.10;37.37
61914;BME280;50095;53.336;-1.488;2022-08-06T08:20:05;101285.40;;;21.33;37.14
61914;BME280;50095;53.336;-1.488;2022-08-06T08:22:32;101284.71;;;22.07;36.41
61914;BME280;50095;53.336;-1.488;2022-08-06T08:25:00;101283.59;;;22.02;36.05
61914;BME280;50095;53.336;-1.488;2022-08-06T08:27:27;101286.10;;;21.69;36.52
61914;BME280;50095;53.336;-1.488;2022-08-06T08:29:55;101284.85;;;22.26;35.79
61914;BME280;50095;53.336;-1.488;2022-08-06T08:32:23;101282.77;;;22.99;34.91
61914;BME280;50095;53.336;-1.488;2022-08-06T08:34:51;101281.39;;;22.63;34.78
61914;BME280;50095;53.336;-1.488;2022-08-06T08:37:18;101280.12;;;23.11;34.75
61914;BME280;50095;53.336;-1.488;2022-08-06T08:39:46;101284.37;;;21.97;34.35
61914;BME280;50095;53.336;-1.488;2022-08-06T08:42:18;101281.38;;;21.82;35.42
61914;BME280;50095;53.336;-1.488;2022-08-06T08:44:46;101277.20;;;21.72;34.57
61914;BME280;50095;53.336;-1.488;2022-08-06T08:47:17;101276.03;;;21.08;35.76
61914;BME280;50095;53.336;-1.488;2022-08-06T08:49:47;101269.11;;;20.90;35.97
61914;BME280;50095;53.336;-1.488;2022-08-06T08:52:21;101269.72;;;20.84;35.80
61914;BME280;50095;53.336;-1.488;2022-08-06T08:54:52;101274.35;;;22.30;35.25
61914;BME280;50095;53.336;-1.488;2022-08-06T08:57:22;101278.05;;;21.70;33.31
61914;BME280;50095;53.336;-1.488;2022-08-06T08:59:50;101274.85;;;21.38;34.70
61914;BME280;50095;53.336;-1.488;2022-08-06T09:02:18;101270.20;;;21.67;34.73
61914;BME280;50095;53.336;-1.488;2022-08-06T09:04:45;101267.05;;;22.66;33.64
61914;BME280;50095;53.336;-1.488;2022-08-06T09:07:13;101264.01;;;22.11;34.10
61914;BME280;50095;53.336;-1.488;2022-08-06T09:09:41;101269.82;;;22.45;32.98
61914;BME280;50095;53.336;-1.488;2022-08-06T09:12:10;101267.80;;;23.00;33.15
61914;BME280;50095;53.336;-1.488;2022-08-06T09:14:38;101269.80;;;21.92;33.17
61914;BME280;50095;53.336;-1.488;2022-08-06T09:17:06;101271.43;;;22.87;33.73
61914;BME280;50095;53.336;-1.488;2022-08-06T09:19:33;101261.20;;;23.94;32.37
61914;BME280;50095;53.336;-1.488;2022-08-06T09:22:01;101269.10;;;22.90;31.12
61914;BME280;50095;53.336;-1.488;2022-08-06T09:24:28;101267.68;;;22.11;31.84
61914;BME280;50095;53.336;-1.488;2022-08-06T09:27:05;101263.64;;;22.20;32.61
61914;BME280;50095;53.336;-1.488;2022-08-06T09:29:34;101272.89;;;22.82;31.65
61914;BME280;50095;53.336;-1.488;2022-08-06T09:32:03;101278.19;;;22.19;33.16
61914;BME280;50095;53.336;-1.488;2022-08-06T09:34:33;101276.48;;;22.15;32.48
61914;BME280;50095;53.336;-1.488;2022-08-06T09:37:02;101278.36;;;22.46;33.42
61914;BME280;50095;53.336;-1.488;2022-08-06T09:39:33;101281.41;;;23.58;32.78
61914;BME280;50095;53.336;-1.488;2022-08-06T09:42:00;101282.81;;;22.15;34.58
61914;BME280;50095;53.336;-1.488;2022-08-06T09:44:28;101283.14;;;22.74;33.50
61914;BME280;50095;53.336;-1.488;2022-08-06T09:46:56;101289.92;;;23.66;31.51
61914;BME280;50095;53.336;-1.488;2022-08-06T09:49:24;101287.23;;;23.32;31.21
61914;BME280;50095;53.336;-1.488;2022-08-06T09:52:10;101292.39;;;24.14;31.70
61914;BME280;50095;53.336;-1.488;2022-08-06T09:54:38;101285.08;;;25.05;30.51
61914;BME280;50095;53.336;-1.488;2022-08-06T09:57:06;101288.01;;;23.07;31.97
61914;BME280;50095;53.336;-1.488;2022-08-06T09:59:42;101290.96;;;24.74;30.43
61914;BME280;50095;53.336;-1.488;2022-08-06T10:02:13;101280.50;;;24.78;30.09
61914;BME280;50095;53.336;-1.488;2022-08-06T10:04:41;101289.36;;;24.27;29.24
61914;BME280;50095;53.336;-1.488;2022-08-06T10:07:09;101279.30;;;25.18;30.32
61914;BME280;50095;53.336;-1.488;2022-08-06T10:09:51;101278.30;;;25.02;30.29
61914;BME280;50095;53.336;-1.488;2022-08-06T10:12:20;101284.86;;;23.81;31.43
61914;BME280;50095;53.336;-1.488;2022-08-06T10:14:47;101280.74;;;25.30;30.14
61914;BME280;50095;53.336;-1.488;2022-08-06T10:17:16;101288.84;;;25.43;29.65
61914;BME280;50095;53.336;-1.488;2022-08-06T10:19:44;101291.96;;;24.53;30.06
61914;BME280;50095;53.336;-1.488;2022-08-06T10:22:13;101292.49;;;23.21;31.90
61914;BME280;50095;53.336;-1.488;2022-08-06T10:24:43;101286.56;;;23.96;31.88
61914;BME280;50095;53.336;-1.488;2022-08-06T10:27:12;101292.60;;;24.28;31.13
61914;BME280;50095;53.336;-1.488;2022-08-06T10:29:42;101295.88;;;22.57;31.90
61914;BME280;50095;53.336;-1.488;2022-08-06T10:32:15;101294.14;;;23.30;32.46
61914;BME280;50095;53.336;-1.488;2022-08-06T10:34:44;101294.88;;;22.75;32.10
61914;BME280;50095;53.336;-1.488;2022-08-06T10:37:13;101290.60;;;23.88;32.03
61914;BME280;50095;53.336;-1.488;2022-08-06T10:39:45;101286.77;;;24.20;31.99
61914;BME280;50095;53.336;-1.488;2022-08-06T10:42:14;101288.23;;;24.14;31.40
61914;BME280;50095;53.336;-1.488;2022-08-06T10:44:43;101292.38;;;23.36;31.61
61914;BME280;50095;53.336;-1.488;2022-08-06T10:47:12;101280.94;;;23.95;32.11
61914;BME280;50095;53.336;-1.488;2022-08-06T10:49:39;101279.75;;;24.37;31.79
61914;BME280;50095;53.336;-1.488;2022-08-06T10:52:10;101273.36;;;24.43;31.19
61914;BME280;50095;53.336;-1.488;2022-08-06T10:54:39;101270.00;;;24.70;31.30
61914;BME280;50095;53.336;-1.488;2022-08-06T10:57:08;101270.99;;;25.28;30.86
61914;BME280;50095;53.336;-1.488;2022-08-06T10:59:35;101272.38;;;25.08;30.62
61914;BME280;50095;53.336;-1.488;2022-08-06T11:02:12;101278.94;;;23.63;31.96
61914;BME280;50095;53.336;-1.488;2022-08-06T11:04:48;101281.50;;;22.86;32.16
61914;BME280;50095;53.336;-1.488;2022-08-06T11:07:45;101280.32;;;24.10;30.62
61914;BME280;50095;53.336;-1.488;2022-08-06T11:10:29;101279.15;;;24.05;31.05
61914;BME280;50095;53.336;-1.488;2022-08-06T11:13:09;101276.01;;;23.29;32.73
61914;BME280;50095;53.336;-1.488;2022-08-06T11:15:41;101276.32;;;23.16;32.21
61914;BME280;50095;53.336;-1.488;2022-08-06T11:18:11;101277.84;;;24.34;31.23
61914;BME280;50095;53.336;-1.488;2022-08-06T11:20:40;101276.43;;;23.49;32.06
61914;BME280;50095;53.336;-1.488;2022-08-06T11:23:26;101267.61;;;23.12;32.20
61914;BME280;50095;53.336;-1.488;2022-08-06T11:25:55;101268.94;;;23.88;32.34
61914;BME280;50095;53.336;-1.488;2022-08-06T11:28:58;101274.00;;;22.99;31.90
61914;BME280;50095;53.336;-1.488;2022-08-06T11:31:43;101268.59;;;21.66;33.54
61914;BME280;50095;53.336;-1.488;2022-08-06T11:34:12;101265.44;;;22.58;33.08
61914;BME280;50095;53.336;-1.488;2022-08-06T11:36:45;101263.92;;;22.50;34.09
61914;BME280;50095;53.336;-1.488;2022-08-06T11:39:13;101265.67;;;22.42;32.86
61914;BME280;50095;53.336;-1.488;2022-08-06T11:41:46;101269.86;;;24.49;30.99
61914;BME280;50095;53.336;-1.488;2022-08-06T11:44:13;101263.99;;;25.03;30.92
61914;BME280;50095;53.336;-1.488;2022-08-06T11:46:42;101266.29;;;23.72;30.70
61914;BME280;50095;53.336;-1.488;2022-08-06T11:49:15;101266.31;;;22.67;31.63
61914;BME280;50095;53.336;-1.488;2022-08-06T11:51:44;101267.59;;;22.86;32.10
61914;BME280;50095;53.336;-1.488;2022-08-06T11:54:14;101267.29;;;24.01;31.66
61914;BME280;50095;53.336;-1.488;2022-08-06T11:57:31;101264.92;;;23.28;31.63
61914;BME280;50095;53.336;-1.488;2022-08-06T12:00:09;101271.98;;;24.44;31.09
61914;BME280;50095;53.336;-1.488;2022-08-06T12:02:50;101261.80;;;25.50;30.25
61914;BME280;50095;53.336;-1.488;2022-08-06T12:05:36;101261.65;;;23.97;30.53
61914;BME280;50095;53.336;-1.488;2022-08-06T12:08:22;101256.98;;;23.71;32.40
61914;BME280;50095;53.336;-1.488;2022-08-06T12:11:54;101249.32;;;24.69;31.54
61914;BME280;50095;53.336;-1.488;2022-08-06T12:14:59;101248.45;;;25.24;30.79
61914;BME280;50095;53.336;-1.488;2022-08-06T12:17:28;101249.64;;;24.92;31.20
61914;BME280;50095;53.336;-1.488;2022-08-06T12:19:58;101247.46;;;25.67;30.71
61914;BME280;50095;53.336;-1.488;2022-08-06T12:22:27;101246.55;;;25.51;30.69
61914;BME280;50095;53.336;-1.488;2022-08-06T12:24:56;101244.48;;;25.85;30.41
61914;BME280;50095;53.336;-1.488;2022-08-06T12:27:31;101244.34;;;24.85;31.13
61914;BME280;50095;53.336;-1.488;2022-08-06T12:29:59;101242.10;;;25.31;31.17
61914;BME280;50095;53.336;-1.488;2022-08-06T12:32:35;101250.10;;;25.41;30.19
61914;BME280;50095;53.336;-1.488;2022-08-06T12:35:08;101245.74;;;24.42;31.51
61914;BME280;50095;53.336;-1.488;2022-08-06T12:37:37;101249.27;;;25.38;30.79
61914;BME280;50095;53.336;-1.488;2022-08-06T12:40:08;101249.57;;;25.30;31.03
61914;BME280;50095;53.336;-1.488;2022-08-06T12:42:37;101249.62;;;25.29;30.84
61914;BME280;50095;53.336;-1.488;2022-08-06T12:45:09;101246.57;;;25.72;30.22
61914;BME280;50095;53.336;-1.488;2022-08-06T12:47:36;101245.25;;;25.74;29.56
61914;BME280;50095;53.336;-1.488;2022-08-06T12:50:17;101243.57;;;25.94;29.72
61914;BME280;50095;53.336;-1.488;2022-08-06T12:52:44;101242.12;;;24.50;30.40
61914;BME280;50095;53.336;-1.488;2022-08-06T12:55:27;101245.92;;;23.66;32.00
61914;BME280;50095;53.336;-1.488;2022-08-06T12:57:56;101242.81;;;24.04;32.19
61914;BME280;50095;53.336;-1.488;2022-08-06T13:00:24;101234.25;;;24.23;31.29
61914;BME280;50095;53.336;-1.488;2022-08-06T13:02:52;101231.16;;;25.04;30.75